createdAt,value
2022-10-19T00:00:48.803Z,6.00
2022-10-19T00:03:20.851Z,5.93
2022-10-19T00:05:50.879Z,5.99
2022-10-19T00:08:17.448Z,5.96
2022-10-19T00:10:44.017Z,5.97
2022-10-19T00:13:10.664Z,5.96
2022-10-19T00:15:41.064Z,5.96
2022-10-19T00:18:08.883Z,5.85
2022-10-19T00:20:37.911Z,5.91
2022-10-19T00:23:04.536Z,5.93
2022-10-19T00:25:31.162Z,5.99
2022-10-19T00:27:57.816Z,6.00
2022-10-19T00:30:24.411Z,5.93
2022-10-19T00:32:50.994Z,5.91
2022-10-19T00:35:18.511Z,5.96
2022-10-19T00:37:45.083Z,5.90
2022-10-19T00:40:12.156Z,5.88
2022-10-19T00:42:38.828Z,5.64
2022-10-19T00:45:14.037Z,5.74
2022-10-19T00:47:42.943Z,5.89
2022-10-19T00:50:11.125Z,5.86
2022-10-19T00:52:37.846Z,5.88
2022-10-19T00:55:05.190Z,5.85
2022-10-19T00:57:32.693Z,5.88
2022-10-19T01:00:03.633Z,5.87
2022-10-19T01:02:30.425Z,5.91
2022-10-19T01:04:59.515Z,5.87
2022-10-19T01:07:26.878Z,5.87
2022-10-19T01:09:54.527Z,5.89
2022-10-19T01:12:45.033Z,5.93
2022-10-19T01:15:29.089Z,5.94
2022-10-19T01:18:08.990Z,5.99
2022-10-19T01:21:03.252Z,5.99
2022-10-19T01:23:54.326Z,5.97
2022-10-19T01:26:43.364Z,5.98
2022-10-19T01:29:47.507Z,5.89
2022-10-19T01:32:30.330Z,5.85
2022-10-19T01:35:07.380Z,5.90
2022-10-19T01:37:51.251Z,5.91
2022-10-19T01:40:44.889Z,5.93
2022-10-19T01:43:37.307Z,5.98
2022-10-19T01:46:11.921Z,5.97
2022-10-19T01:48:43.663Z,6.01
2022-10-19T01:51:18.358Z,6.02
2022-10-19T01:53:49.420Z,5.99
2022-10-19T01:56:20.336Z,5.99
2022-10-19T01:58:47.667Z,6.02
2022-10-19T02:01:19.540Z,6.06
2022-10-19T02:03:53.216Z,6.10
2022-10-19T02:06:21.031Z,6.04
2022-10-19T02:08:50.299Z,6.10
2022-10-19T02:11:17.974Z,6.15
2022-10-19T02:13:47.198Z,6.18
2022-10-19T02:16:20.422Z,6.21
2022-10-19T02:18:50.328Z,6.23
2022-10-19T02:21:17.579Z,6.23
2022-10-19T02:23:44.268Z,6.19
2022-10-19T02:26:11.312Z,6.16
2022-10-19T02:28:38.530Z,6.10
2022-10-19T02:31:05.494Z,6.13
2022-10-19T02:33:32.300Z,6.02
2022-10-19T02:35:59.833Z,6.14
2022-10-19T02:38:26.695Z,6.16
2022-10-19T02:41:18.384Z,6.17
2022-10-19T02:43:50.191Z,6.10
2022-10-19T02:46:22.614Z,6.02
2022-10-19T02:48:51.589Z,6.08
2022-10-19T02:51:59.259Z,6.10
2022-10-19T02:54:26.187Z,6.12
2022-10-19T02:56:56.564Z,6.02
2022-10-19T02:59:24.375Z,6.06
2022-10-19T03:01:51.211Z,5.90
2022-10-19T03:04:18.777Z,5.97
2022-10-19T03:06:45.562Z,5.99
2022-10-19T03:09:12.274Z,5.80
2022-10-19T03:11:38.870Z,6.02
2022-10-19T03:14:07.191Z,6.01
2022-10-19T03:16:33.795Z,6.00
2022-10-19T03:19:00.392Z,5.95
2022-10-19T03:21:27.047Z,6.04
2022-10-19T03:23:54.561Z,6.07
2022-10-19T03:26:21.303Z,5.97
2022-10-19T03:28:47.915Z,5.99
2022-10-19T03:31:14.487Z,6.05
2022-10-19T03:33:41.105Z,5.99
2022-10-19T03:36:15.466Z,6.03
2022-10-19T03:38:42.091Z,5.81
2022-10-19T03:41:09.107Z,5.93
2022-10-19T03:43:37.237Z,5.98
2022-10-19T19:11:19.249Z,5.49
2022-10-19T19:13:54.972Z,5.54
2022-10-19T19:16:23.026Z,5.64
2022-10-19T19:18:50.347Z,5.71
2022-10-19T19:21:20.315Z,5.73
2022-10-19T19:23:47.716Z,5.79
2022-10-19T19:26:14.920Z,5.86
2022-10-19T19:28:42.878Z,5.93
2022-10-19T19:31:15.766Z,5.97
2022-10-19T19:33:43.814Z,5.98
2022-10-19T19:36:12.902Z,6.05
2022-10-19T19:38:40.458Z,5.98
2022-10-19T19:41:09.633Z,6.04
2022-10-19T19:43:37.467Z,6.11
2022-10-19T19:46:09.779Z,6.07
2022-10-19T19:48:37.318Z,6.07
2022-10-19T19:51:04.164Z,6.10
2022-10-19T19:53:31.250Z,6.10
2022-10-19T19:55:57.829Z,6.12
2022-10-19T19:58:24.833Z,6.16
2022-10-19T20:00:51.520Z,6.17
2022-10-19T20:03:18.197Z,6.20
2022-10-19T20:05:44.801Z,6.24
2022-10-19T20:08:11.819Z,6.22
2022-10-19T20:10:40.822Z,6.19
2022-10-19T20:13:07.626Z,6.11
2022-10-19T20:15:34.810Z,6.13
2022-10-19T20:18:01.368Z,6.18
2022-10-19T20:20:27.976Z,6.03
2022-10-19T20:22:55.568Z,6.16
2022-10-19T20:25:22.145Z,6.26
2022-10-19T20:27:48.766Z,6.26
2022-10-19T20:30:15.480Z,6.22
2022-10-19T20:32:42.028Z,6.18
2022-10-19T20:35:09.020Z,6.20
2022-10-19T20:37:35.675Z,6.08
2022-10-19T20:40:08.341Z,6.03
2022-10-19T20:42:36.146Z,6.05
2022-10-19T20:45:04.037Z,5.98
2022-10-19T20:47:30.677Z,5.94
2022-10-19T20:49:57.292Z,5.90
2022-10-19T20:52:23.957Z,5.87
2022-10-19T20:54:50.587Z,5.83
2022-10-19T20:57:17.152Z,5.79
2022-10-19T20:59:46.646Z,5.72
2022-10-19T21:02:13.239Z,5.73
2022-10-19T21:04:39.815Z,5.77
2022-10-19T21:07:06.894Z,5.87
2022-10-19T21:09:35.513Z,5.91
2022-10-19T21:12:03.431Z,5.91
2022-10-19T21:14:30.794Z,5.96
2022-10-19T21:16:59.343Z,5.89
2022-10-19T21:19:28.451Z,5.93
2022-10-19T21:22:03.618Z,5.88
2022-10-19T21:24:33.322Z,5.89
2022-10-19T21:27:01.677Z,5.82
2022-10-19T21:29:28.570Z,5.92
2022-10-19T21:31:55.336Z,5.90
2022-10-19T21:34:24.920Z,5.96
2022-10-19T21:36:51.742Z,5.89
2022-10-19T21:39:18.634Z,5.90
2022-10-19T21:41:46.262Z,5.88
2022-10-19T21:44:14.427Z,5.91
2022-10-19T21:46:43.077Z,5.95
2022-10-19T21:49:13.178Z,6.00
2022-10-19T21:51:45.027Z,5.96
2022-10-19T21:54:14.731Z,5.96
2022-10-19T21:56:41.709Z,5.96
2022-10-19T21:59:09.060Z,5.91
2022-10-19T22:01:40.111Z,5.87
2022-10-19T22:04:15.542Z,5.85
2022-10-19T22:06:42.876Z,5.91
2022-10-19T22:09:16.046Z,5.93
2022-10-19T22:11:45.273Z,5.88
2022-10-19T22:14:14.052Z,5.78
2022-10-19T22:16:41.588Z,5.74
2022-10-19T22:19:09.849Z,5.75
2022-10-19T22:24:12.420Z,5.76
2022-10-19T22:26:42.079Z,5.73
2022-10-19T22:29:09.040Z,5.69
2022-10-19T22:31:37.029Z,5.73
2022-10-19T22:34:10.111Z,5.76
2022-10-19T22:36:36.896Z,5.74
2022-10-19T22:39:06.435Z,5.77
2022-10-19T22:41:33.188Z,5.81
2022-10-19T22:44:00.040Z,5.79
2022-10-19T22:46:28.625Z,5.81
2022-10-19T22:48:55.356Z,5.81
2022-10-19T22:51:22.074Z,5.85
2022-10-19T22:53:48.814Z,5.78
2022-10-19T22:56:15.528Z,5.73
2022-10-19T22:58:42.237Z,5.67
2022-10-19T23:01:12.189Z,5.76
2022-10-19T23:03:40.476Z,5.83
2022-10-19T23:06:15.148Z,5.79
2022-10-19T23:08:44.434Z,5.71
2022-10-19T23:11:12.043Z,5.74
2022-10-19T23:13:39.276Z,5.70
2022-10-19T23:16:06.698Z,5.60
2022-10-19T23:18:34.967Z,5.60
2022-10-19T23:21:07.852Z,5.60
2022-10-19T23:23:35.436Z,5.50
2022-10-19T23:26:09.348Z,5.55
2022-10-19T23:28:37.588Z,5.52
2022-10-19T23:31:14.068Z,5.55
2022-10-19T23:33:41.211Z,5.51
2022-10-19T23:36:16.781Z,5.37
2022-10-19T23:38:45.017Z,5.60
2022-10-19T23:41:12.223Z,5.66
2022-10-19T23:43:40.456Z,5.67
2022-10-19T23:46:07.142Z,5.58
2022-10-19T23:48:34.562Z,5.52
2022-10-19T23:51:13.932Z,5.47
2022-10-19T23:53:42.619Z,5.50
2022-10-19T23:56:14.881Z,5.49
2022-10-19T23:58:41.953Z,5.50
